KEHR

Henderson City-County Airport

Henderson, Kentucky, USA
METAR KEHR 201456Z AUTO 18022G29KT 10SM CLR 21/14 A3009 RMK AO2 PK WND 18029/1455 SLP198 T02110144 53006
Observed Flight Rules
Feb-20 @ 14:56 UTC (2 hours ago) Visual Flight Rules
Wind Visibility Clouds
180° at 22 knots
 Gusting to 29 knots
10 miles
  • Clear skies
Temperatures Readings
Current 21°C / 70°F
Dewpoint 14°C / 57°F
Humidity 64%
Altimeter 30.09" Hg
Pressure 1019.8 hPa
Elevation 117
METAR KEHR 201456Z AUTO 18022G29KT 10SM CLR 21/14 A3009 RMK AO2 PK WND 18029/1455 SLP198 T02110144 53006
Observed Flight Rules
Feb-20 @ 14:56 UTC
(2 hours ago)
VFR
Wind Visibility
180° at 22 knots
 Gusting to 29 knots
10 miles
Clouds
  • Clear skies
Temperature Dewpoint
21°C / 70°F 14°C / 57°F
Humidity Altimeter Pressure
64% 30.09" Hg 1019.8 hPa